createdAt,value
2022-09-09T00:00:19.035Z,61.54
2022-09-09T00:02:53.366Z,61.76
2022-09-09T00:05:28.457Z,61.77
2022-09-09T00:08:02.160Z,62.17
2022-09-09T00:10:34.913Z,62.28
2022-09-09T00:13:17.231Z,62.19
2022-09-09T00:15:57.869Z,62.15
2022-09-09T00:18:31.244Z,62.35
2022-09-09T00:21:05.463Z,62.39
2022-09-09T00:23:37.674Z,62.53
2022-09-09T00:26:14.171Z,62.48
2022-09-09T00:28:48.254Z,62.63
2022-09-09T00:31:21.928Z,62.55
2022-09-09T00:33:51.719Z,62.70
2022-09-09T00:36:23.950Z,62.80
2022-09-09T00:38:55.992Z,63.02
2022-09-09T00:41:31.718Z,62.90
2022-09-09T00:44:05.221Z,62.90
2022-09-09T00:47:03.729Z,62.80
2022-09-09T00:49:42.802Z,63.00
2022-09-09T00:52:24.861Z,63.18
2022-09-09T00:55:05.333Z,63.34
2022-09-09T00:57:34.933Z,63.63
2022-09-09T01:00:19.875Z,63.37
2022-09-09T01:03:05.422Z,63.36
2022-09-09T01:05:43.011Z,63.23
2022-09-09T01:08:29.274Z,63.11
2022-09-09T01:11:00.546Z,63.12
2022-09-09T01:13:34.806Z,63.02
2022-09-09T01:16:12.659Z,62.97
2022-09-09T01:18:47.726Z,62.98
2022-09-09T01:21:26.978Z,62.92
2022-09-09T01:24:14.702Z,62.89
2022-09-09T01:27:12.604Z,62.89
2022-09-09T01:29:41.392Z,62.85
2022-09-09T01:32:42.845Z,62.55
2022-09-09T01:35:16.818Z,62.56
2022-09-09T01:37:45.037Z,62.47
2022-09-09T01:40:13.607Z,62.28
2022-09-09T01:42:43.388Z,62.32
2022-09-09T01:45:11.903Z,62.28
2022-09-09T01:47:40.358Z,62.36
2022-09-09T01:50:19.074Z,62.46
2022-09-09T01:52:51.239Z,62.54
2022-09-09T01:55:30.346Z,62.55
2022-09-09T01:58:12.015Z,62.44
2022-09-09T02:00:49.781Z,62.56
2022-09-09T02:03:24.354Z,62.53
2022-09-09T02:06:08.025Z,62.24
2022-09-09T02:08:45.611Z,62.15
2022-09-09T02:11:15.901Z,62.24
2022-09-09T02:13:53.021Z,62.15
2022-09-09T02:16:26.478Z,62.03
2022-09-09T02:19:00.225Z,62.30
2022-09-09T02:21:37.773Z,62.55
2022-09-09T02:24:09.963Z,62.64
2022-09-09T02:26:46.054Z,62.73
2022-09-09T02:29:22.272Z,62.76
2022-09-09T02:31:53.119Z,62.84
2022-09-09T02:34:28.648Z,63.02
2022-09-09T02:37:00.419Z,63.11
2022-09-09T02:39:28.434Z,63.07
2022-09-09T02:41:56.955Z,63.21
2022-09-09T02:44:33.627Z,63.29
2022-09-09T02:47:18.486Z,63.07
2022-09-09T02:49:55.329Z,63.15
2022-09-09T02:52:31.788Z,63.21
2022-09-09T02:55:07.506Z,63.11
2022-09-09T02:57:37.419Z,63.19
2022-09-09T03:00:09.844Z,63.11
2022-09-09T03:02:38.316Z,63.10
2022-09-09T03:05:08.925Z,63.43
2022-09-09T03:07:37.567Z,63.50
2022-09-09T03:10:06.319Z,63.50
2022-09-09T03:12:34.625Z,63.34
2022-09-09T03:15:02.662Z,63.17
2022-09-09T03:17:32.066Z,63.11
2022-09-09T03:20:00.097Z,63.14
2022-09-09T03:22:28.221Z,63.24
2022-09-09T03:24:58.557Z,63.15
2022-09-09T03:27:26.679Z,63.04
2022-09-09T03:29:54.682Z,63.01
2022-09-09T03:32:26.754Z,63.13
2022-09-09T03:34:57.626Z,63.19
2022-09-09T03:37:25.986Z,63.18
2022-09-09T03:39:55.596Z,63.24
2022-09-09T03:42:24.837Z,63.12
2022-09-09T03:44:56.010Z,63.02
2022-09-09T03:47:26.541Z,63.11
2022-09-09T03:50:00.685Z,63.21
2022-09-09T03:52:30.554Z,63.41
2022-09-09T03:54:58.855Z,63.44
2022-09-09T03:57:26.836Z,63.46
2022-09-09T03:59:55.430Z,63.44
2022-09-09T04:02:23.672Z,63.44
2022-09-09T04:04:51.911Z,63.39
2022-09-09T04:07:22.493Z,63.37
2022-09-09T04:09:50.661Z,63.45
2022-09-09T04:12:19.090Z,63.44
2022-09-09T04:14:47.184Z,63.46
2022-09-09T04:17:15.417Z,63.45
2022-09-09T04:19:44.287Z,63.40
2022-09-09T04:22:12.420Z,63.47
2022-09-09T04:24:44.508Z,63.50
2022-09-09T04:27:16.385Z,63.52
2022-09-09T04:29:44.429Z,63.52
2022-09-09T04:32:12.622Z,63.57
2022-09-09T04:34:42.264Z,63.63
2022-09-09T04:37:11.055Z,63.60
2022-09-09T04:39:41.658Z,63.64
2022-09-09T04:42:09.790Z,63.55
2022-09-09T04:44:37.889Z,63.50
2022-09-09T04:47:06.659Z,63.56
2022-09-09T04:49:34.906Z,63.58
2022-09-09T04:52:03.365Z,63.57
2022-09-09T04:54:33.273Z,63.66
2022-09-09T04:57:03.065Z,63.68
2022-09-09T04:59:31.306Z,63.63
2022-09-09T05:02:02.661Z,63.57
2022-09-09T05:04:30.909Z,63.56
2022-09-09T05:07:00.234Z,63.73
2022-09-09T05:09:28.798Z,63.76
2022-09-09T05:11:57.005Z,63.92
2022-09-09T05:14:31.579Z,63.79
2022-09-09T05:17:02.200Z,63.87
2022-09-09T05:19:31.606Z,63.85
2022-09-09T05:21:59.689Z,63.87
2022-09-09T05:24:35.107Z,63.87
2022-09-09T05:27:07.042Z,63.81
2022-09-09T05:29:36.631Z,63.82
2022-09-09T05:32:07.156Z,63.73
2022-09-09T05:34:38.621Z,63.53
2022-09-09T05:37:07.795Z,63.60
2022-09-09T05:39:37.970Z,63.47
2022-09-09T05:42:07.154Z,63.47
2022-09-09T05:44:37.061Z,63.45
2022-09-09T05:47:05.596Z,63.60
2022-09-09T05:49:33.933Z,63.24
2022-09-09T05:52:02.031Z,63.39
2022-09-09T05:54:30.028Z,63.47
2022-09-09T05:56:58.275Z,63.33
2022-09-09T05:59:26.291Z,63.48
2022-09-09T06:01:58.641Z,63.59
2022-09-09T06:04:36.777Z,63.63
2022-09-09T06:07:06.630Z,63.63
2022-09-09T06:09:34.714Z,63.66
2022-09-09T06:12:03.582Z,63.42
2022-09-09T06:14:34.951Z,63.31
2022-09-09T06:17:06.321Z,63.38
2022-09-09T06:19:34.478Z,63.56
2022-09-09T06:22:03.166Z,63.63
2022-09-09T06:24:34.510Z,63.63
2022-09-09T06:27:04.482Z,63.88
2022-09-09T06:29:35.986Z,63.51
2022-09-09T06:32:06.128Z,63.60
2022-09-09T06:34:34.179Z,63.39
2022-09-09T06:37:02.554Z,63.05
2022-09-09T06:39:37.289Z,63.44
2022-09-09T06:42:05.783Z,63.39
2022-09-09T06:44:51.694Z,62.91
2022-09-09T06:47:28.274Z,63.02
2022-09-09T06:49:58.069Z,63.01
2022-09-09T06:52:26.945Z,62.87
2022-09-09T06:54:56.773Z,62.79
2022-09-09T06:57:36.934Z,63.10
2022-09-09T07:00:10.494Z,63.03
2022-09-09T07:02:40.738Z,62.77
2022-09-09T07:05:10.928Z,62.74
2022-09-09T07:07:40.205Z,62.72
2022-09-09T07:10:10.505Z,62.47
2022-09-09T07:12:39.624Z,62.37
2022-09-09T07:15:12.149Z,62.41
2022-09-09T07:17:45.021Z,61.87
2022-09-09T07:20:13.812Z,61.98
2022-09-09T07:22:42.265Z,62.08
2022-09-09T07:25:11.646Z,62.30
2022-09-09T07:27:39.778Z,62.24
2022-09-09T07:30:09.565Z,62.31
2022-09-09T07:32:37.941Z,62.57
2022-09-09T07:35:08.466Z,62.02
2022-09-09T07:37:39.256Z,61.94
2022-09-09T07:40:08.421Z,61.84
2022-09-09T07:42:37.389Z,62.05
2022-09-09T07:45:06.716Z,62.41
2022-09-09T07:47:35.168Z,62.22
2022-09-09T07:50:04.038Z,62.58
2022-09-09T07:52:35.930Z,61.61
2022-09-09T07:55:07.488Z,60.45
2022-09-09T07:57:35.685Z,60.14
2022-09-09T08:00:06.058Z,60.04
2022-09-09T08:02:40.422Z,60.58
2022-09-09T08:05:10.488Z,61.18
2022-09-09T08:07:42.700Z,59.22
2022-09-09T08:10:11.563Z,58.86
2022-09-09T08:13:01.494Z,58.07
2022-09-09T08:15:31.101Z,58.00
2022-09-09T08:17:59.383Z,57.30
2022-09-09T08:20:28.918Z,58.02
2022-09-09T08:23:00.015Z,57.53
2022-09-09T08:25:28.043Z,56.82
2022-09-09T08:27:56.893Z,56.29
2022-09-09T08:30:25.196Z,55.68
2022-09-09T08:32:53.971Z,56.04
2022-09-09T08:35:23.155Z,56.03
2022-09-09T08:37:56.011Z,57.73
2022-09-09T08:40:31.318Z,57.76
2022-09-09T08:43:02.701Z,55.09
2022-09-09T08:45:36.554Z,53.78
2022-09-09T08:48:24.831Z,54.59
2022-09-09T08:50:53.541Z,55.71
2022-09-09T08:53:32.318Z,55.02
2022-09-09T08:56:09.566Z,55.25
2022-09-09T08:58:51.093Z,54.96
2022-09-09T09:01:48.043Z,53.06
2022-09-09T09:04:35.998Z,52.62
2022-09-09T09:07:15.809Z,51.91
2022-09-09T09:09:59.818Z,53.27
2022-09-09T09:12:37.299Z,52.72
2022-09-09T09:15:17.151Z,51.20
2022-09-09T09:17:45.770Z,51.44
2022-09-09T09:20:16.365Z,52.15
2022-09-09T09:22:51.738Z,50.63
2022-09-09T09:25:23.687Z,50.42
2022-09-09T09:28:01.701Z,51.62
2022-09-09T09:30:38.762Z,52.03
2022-09-09T09:33:17.366Z,52.29
2022-09-09T09:35:45.407Z,52.56
2022-09-09T09:41:09.632Z,51.97
2022-09-09T09:43:43.404Z,51.78
2022-09-09T09:46:24.666Z,51.04
2022-09-09T09:49:01.370Z,48.87
2022-09-09T09:51:33.244Z,47.79
2022-09-09T09:54:17.148Z,46.15
2022-09-09T09:56:49.761Z,47.54
2022-09-09T09:59:40.702Z,47.18
2022-09-09T10:02:20.758Z,42.55
2022-09-09T10:05:03.728Z,42.75
2022-09-09T10:07:34.357Z,42.10
2022-09-09T10:10:02.767Z,43.42
2022-09-09T10:12:43.227Z,45.67
2022-09-09T10:15:29.430Z,43.55
2022-09-09T10:18:10.882Z,42.58
2022-09-09T10:20:47.875Z,42.98
2022-09-09T10:23:29.718Z,44.01
2022-09-09T10:26:16.087Z,44.13
2022-09-09T10:29:09.698Z,45.34
2022-09-09T10:31:46.111Z,46.99
2022-09-09T10:34:29.684Z,45.89
2022-09-09T10:37:00.502Z,46.55
2022-09-09T10:39:40.713Z,47.54
2022-09-09T10:42:14.465Z,48.36
2022-09-09T10:44:58.754Z,48.34
2022-09-09T10:47:47.490Z,49.27
2022-09-09T10:53:37.625Z,49.72
2022-09-09T10:56:10.234Z,45.96
2022-09-09T10:58:46.326Z,43.51
2022-09-09T11:01:19.744Z,43.19
2022-09-09T11:03:56.452Z,44.77
2022-09-09T11:06:30.968Z,47.40
2022-09-09T11:09:02.373Z,45.41
2022-09-09T11:11:34.833Z,42.84
2022-09-09T11:14:07.657Z,38.49
2022-09-09T11:16:43.451Z,39.32
2022-09-09T11:19:22.341Z,37.22
2022-09-09T11:21:53.044Z,34.06
2022-09-09T11:24:27.821Z,34.88
2022-09-09T11:27:00.788Z,34.73
2022-09-09T11:29:53.615Z,34.16
2022-09-09T11:32:42.283Z,34.42
2022-09-09T11:35:27.127Z,33.34
2022-09-09T11:38:20.854Z,32.76
2022-09-09T11:40:56.006Z,32.28
2022-09-09T11:43:27.866Z,31.33
2022-09-09T11:46:01.149Z,30.98
2022-09-09T11:48:35.624Z,31.76
2022-09-09T11:51:14.560Z,32.86
2022-09-09T11:53:53.206Z,32.35
2022-09-09T11:56:30.973Z,33.68
2022-09-09T11:59:03.089Z,35.76
2022-09-09T12:01:39.906Z,37.41
2022-09-09T12:04:22.204Z,36.84
2022-09-09T12:06:55.789Z,37.90
2022-09-09T12:09:45.810Z,37.82
2022-09-09T12:12:39.292Z,39.54
2022-09-09T12:15:29.961Z,40.33
2022-09-09T12:18:03.123Z,40.29
2022-09-09T12:20:37.284Z,38.99
2022-09-09T12:23:26.160Z,39.38
2022-09-09T12:26:29.979Z,37.22
2022-09-09T12:29:07.872Z,36.24
2022-09-09T12:31:45.721Z,33.70
2022-09-09T12:34:18.218Z,32.41
2022-09-09T12:36:54.149Z,31.76
2022-09-09T12:39:31.857Z,30.98
2022-09-09T12:42:00.010Z,32.30
2022-09-09T12:44:30.141Z,33.02
2022-09-09T12:47:00.551Z,34.52
2022-09-09T12:49:35.104Z,35.95
2022-09-09T12:52:07.339Z,36.34
2022-09-09T12:54:38.784Z,37.71
2022-09-09T12:57:07.770Z,36.96
2022-09-09T12:59:41.383Z,38.37
2022-09-09T13:02:20.486Z,38.05
2022-09-09T13:04:49.305Z,37.87
2022-09-09T13:07:17.444Z,39.33
2022-09-09T13:09:48.379Z,40.88
2022-09-09T13:12:20.068Z,42.35
2022-09-09T13:14:51.882Z,44.77
2022-09-09T13:17:23.307Z,44.62
2022-09-09T13:19:53.966Z,45.12
2022-09-09T13:22:33.836Z,42.84
2022-09-09T13:25:08.157Z,43.06
2022-09-09T13:27:39.910Z,44.24
2022-09-09T13:30:23.957Z,43.77
2022-09-09T13:33:03.203Z,44.34
2022-09-09T13:35:31.750Z,45.08
2022-09-09T13:38:01.290Z,45.79
2022-09-09T13:40:31.431Z,45.47
2022-09-09T13:43:00.559Z,45.94
2022-09-09T13:45:29.064Z,46.41
2022-09-09T13:47:57.789Z,46.60
2022-09-09T13:50:28.495Z,46.80
2022-09-09T13:52:58.977Z,45.14
2022-09-09T13:55:28.929Z,45.40
2022-09-09T13:58:01.498Z,46.98
2022-09-09T14:00:32.289Z,46.26
2022-09-09T14:03:03.123Z,45.89
2022-09-09T14:05:33.970Z,45.14
2022-09-09T14:08:02.708Z,43.63
2022-09-09T14:10:30.713Z,44.38
2022-09-09T14:13:00.153Z,45.14
2022-09-09T14:15:28.624Z,43.63
2022-09-09T14:17:56.985Z,42.91
2022-09-09T14:20:24.991Z,42.34
2022-09-09T14:22:54.430Z,42.68
2022-09-09T14:25:22.470Z,43.27
2022-09-09T14:27:52.350Z,43.39
2022-09-09T14:30:21.734Z,44.64
2022-09-09T14:32:49.738Z,45.22
2022-09-09T14:35:18.309Z,44.41
2022-09-09T14:37:47.691Z,43.70
2022-09-09T14:40:17.686Z,43.91
2022-09-09T14:42:45.742Z,43.03
2022-09-09T14:45:14.172Z,43.39
2022-09-09T14:47:43.618Z,44.04
2022-09-09T14:50:13.373Z,44.32
2022-09-09T14:52:41.510Z,44.31
2022-09-09T14:55:10.449Z,44.30
2022-09-09T14:57:39.954Z,45.22
2022-09-09T15:00:09.601Z,44.84
2022-09-09T15:02:37.741Z,45.07
2022-09-09T15:05:08.058Z,44.83
2022-09-09T15:07:36.693Z,45.12
2022-09-09T15:10:06.100Z,44.70
2022-09-09T15:12:34.253Z,44.59
2022-09-09T15:15:02.259Z,44.19
2022-09-09T15:17:30.394Z,45.04
2022-09-09T15:19:58.489Z,45.51
2022-09-09T15:22:27.890Z,44.35
2022-09-09T15:24:55.950Z,43.69
2022-09-09T15:27:24.895Z,43.03
2022-09-09T15:29:53.313Z,42.76
2022-09-09T15:32:21.370Z,42.71
2022-09-09T15:34:52.369Z,42.60
2022-09-09T15:37:20.392Z,43.37
2022-09-09T15:39:49.919Z,43.97
2022-09-09T15:42:17.962Z,44.87
2022-09-09T15:44:45.962Z,44.92
2022-09-09T15:47:16.150Z,45.08
2022-09-09T15:49:44.226Z,45.41
2022-09-09T15:52:12.837Z,45.54
2022-09-09T15:54:41.095Z,45.72
2022-09-09T15:57:14.531Z,45.99
2022-09-09T15:59:42.670Z,46.76
2022-09-09T16:02:12.011Z,47.22
2022-09-09T16:04:40.266Z,47.53
2022-09-09T16:07:08.390Z,47.86
2022-09-09T16:09:37.141Z,48.41
2022-09-09T16:12:08.853Z,49.03
2022-09-09T16:14:39.641Z,48.41
2022-09-09T16:17:08.104Z,49.80
2022-09-09T16:19:36.550Z,48.59
2022-09-09T16:22:05.522Z,49.02
2022-09-09T16:24:33.615Z,49.43
2022-09-09T16:27:01.608Z,48.29
2022-09-09T16:29:29.722Z,49.02
2022-09-09T16:32:03.584Z,49.53
2022-09-09T16:34:34.654Z,48.09
2022-09-09T16:37:03.020Z,48.70
2022-09-09T16:39:31.088Z,47.61
2022-09-09T16:41:59.209Z,47.99
2022-09-09T16:44:27.286Z,48.12
2022-09-09T16:47:00.421Z,48.23
2022-09-09T16:49:30.315Z,48.58
2022-09-09T16:52:00.809Z,47.65
2022-09-09T16:54:29.975Z,47.76
2022-09-09T16:56:58.496Z,46.11
2022-09-09T16:59:27.517Z,45.57
2022-09-09T17:01:55.788Z,45.22
2022-09-09T17:04:27.308Z,45.43
2022-09-09T17:06:58.403Z,45.32
2022-09-09T17:09:29.996Z,45.80
2022-09-09T17:11:58.649Z,45.19
2022-09-09T17:14:26.855Z,45.18
2022-09-09T17:16:55.261Z,45.28
2022-09-09T17:19:23.505Z,46.04
2022-09-09T17:22:15.453Z,45.70
2022-09-09T17:24:41.855Z,45.94
2022-09-09T17:27:10.857Z,46.06
2022-09-09T17:29:39.522Z,46.35
2022-09-09T17:32:08.624Z,46.92
2022-09-09T17:34:37.407Z,46.89
2022-09-09T17:37:07.087Z,47.31
2022-09-09T17:39:35.617Z,47.37
2022-09-09T17:42:05.626Z,47.36
2022-09-09T17:44:34.343Z,47.25
2022-09-09T17:47:05.067Z,47.41
2022-09-09T17:49:34.162Z,47.55
2022-09-09T17:52:02.463Z,47.88
2022-09-09T17:54:30.846Z,47.89
2022-09-09T17:57:00.511Z,48.09
2022-09-09T17:59:30.324Z,48.99
2022-09-09T18:01:58.654Z,48.38
2022-09-09T18:04:26.936Z,48.31
2022-09-09T18:06:55.774Z,48.55
2022-09-09T18:09:26.882Z,48.34
2022-09-09T18:11:57.224Z,48.10
2022-09-09T18:14:28.664Z,48.36
2022-09-09T18:16:58.812Z,49.07
2022-09-09T18:19:31.140Z,48.71
2022-09-09T18:22:02.372Z,49.21
2022-09-09T18:24:32.958Z,49.01
2022-09-09T18:27:01.287Z,49.31
2022-09-09T18:29:30.110Z,49.31
2022-09-09T18:31:59.840Z,49.59
2022-09-09T18:34:30.268Z,50.08
2022-09-09T18:37:00.171Z,50.21
2022-09-09T18:39:30.410Z,50.38
2022-09-09T18:42:00.884Z,50.27
2022-09-09T18:44:31.598Z,50.21
2022-09-09T18:47:01.973Z,50.17
2022-09-09T18:49:30.380Z,50.35
2022-09-09T18:51:59.442Z,50.60
2022-09-09T18:54:30.498Z,50.72
2022-09-09T18:57:00.923Z,51.08
2022-09-09T18:59:29.561Z,51.09
2022-09-09T19:01:58.091Z,51.22
2022-09-09T19:04:28.122Z,51.27
2022-09-09T19:06:58.890Z,51.59
2022-09-09T19:09:29.484Z,51.67
2022-09-09T19:11:58.264Z,51.75
2022-09-09T19:14:26.855Z,51.91
2022-09-09T19:16:55.561Z,52.17
2022-09-09T19:19:28.668Z,52.43
2022-09-09T19:21:57.855Z,52.48
2022-09-09T19:24:28.500Z,52.50
2022-09-09T19:27:01.577Z,52.49
2022-09-09T19:29:32.030Z,52.53
2022-09-09T19:32:49.395Z,52.77
2022-09-09T19:34:52.580Z,53.01
2022-09-09T19:37:22.558Z,53.01
2022-09-09T19:39:50.979Z,53.37
2022-09-09T19:42:19.445Z,53.61
2022-09-09T19:44:47.999Z,53.59
2022-09-09T19:47:16.702Z,53.60
2022-09-09T19:49:47.489Z,53.77
2022-09-09T19:52:18.176Z,53.90
2022-09-09T19:54:47.128Z,54.12
2022-09-09T19:57:16.218Z,54.17
2022-09-09T19:59:44.549Z,54.23
2022-09-09T20:02:15.374Z,54.15
2022-09-09T20:04:44.884Z,54.03
2022-09-09T20:07:13.554Z,54.13
2022-09-09T20:09:43.287Z,54.49
2022-09-09T20:12:11.733Z,54.52
2022-09-09T20:14:40.345Z,54.40
2022-09-09T20:17:10.156Z,54.46
2022-09-09T20:19:39.937Z,54.51
2022-09-09T20:22:08.420Z,54.47
2022-09-09T20:24:38.137Z,54.39
2022-09-09T20:27:08.560Z,54.39
2022-09-09T20:29:37.779Z,54.43
2022-09-09T20:32:07.025Z,54.56
2022-09-09T20:34:35.444Z,54.75
2022-09-09T20:37:04.768Z,54.84
2022-09-09T20:39:33.197Z,54.86
2022-09-09T20:42:03.079Z,55.07
2022-09-09T20:44:33.109Z,55.18
2022-09-09T20:47:06.284Z,55.31
2022-09-09T20:49:35.332Z,55.32
2022-09-09T20:52:04.158Z,55.33
2022-09-09T20:54:33.511Z,55.43
2022-09-09T20:57:02.103Z,55.87
2022-09-09T20:59:32.458Z,56.10
2022-09-09T21:02:01.647Z,56.29
2022-09-09T21:04:31.283Z,56.43
2022-09-09T21:06:59.564Z,56.43
2022-09-09T21:09:29.180Z,56.58
2022-09-09T21:11:57.508Z,56.64
2022-09-09T21:14:27.360Z,56.56
2022-09-09T21:16:58.609Z,56.64
2022-09-09T21:19:26.898Z,56.61
2022-09-09T21:21:55.244Z,56.67
2022-09-09T21:24:23.489Z,56.71
2022-09-09T21:26:51.849Z,56.77
2022-09-09T21:29:20.204Z,56.86
2022-09-09T21:31:48.574Z,56.90
2022-09-09T21:34:18.509Z,56.88
2022-09-09T21:36:46.882Z,57.03
2022-09-09T21:39:15.296Z,57.12
2022-09-09T21:41:43.649Z,57.17
2022-09-09T21:44:14.498Z,57.12
2022-09-09T21:46:44.449Z,57.23
2022-09-09T21:49:12.869Z,57.42
2022-09-09T21:51:42.723Z,57.42
2022-09-09T21:54:10.994Z,57.40
2022-09-09T21:56:39.675Z,57.37
2022-09-09T21:59:08.220Z,57.48
2022-09-09T22:01:36.586Z,57.46
2022-09-09T22:04:05.219Z,57.51
2022-09-09T22:06:34.227Z,57.64
2022-09-09T22:09:03.954Z,57.83
2022-09-09T22:11:34.082Z,57.76
2022-09-09T22:14:03.194Z,57.71
2022-09-09T22:16:31.789Z,57.80
2022-09-09T22:19:01.920Z,57.97
2022-09-09T22:21:34.361Z,58.19
2022-09-09T22:24:06.049Z,58.41
2022-09-09T22:26:37.771Z,58.56
2022-09-09T22:29:07.417Z,58.66
2022-09-09T22:31:37.071Z,58.58
2022-09-09T22:34:06.878Z,58.76
2022-09-09T22:36:38.240Z,58.77
2022-09-09T22:39:07.898Z,58.83
2022-09-09T22:41:36.186Z,58.94
2022-09-09T22:44:04.804Z,58.87
2022-09-09T22:46:33.229Z,58.87
2022-09-09T22:49:03.504Z,58.85
2022-09-09T22:51:34.360Z,58.77
2022-09-09T22:54:02.847Z,58.64
2022-09-09T22:56:32.979Z,58.70
2022-09-09T22:59:01.718Z,58.83
2022-09-09T23:01:30.828Z,58.69
2022-09-09T23:04:01.763Z,58.75
2022-09-09T23:06:31.966Z,58.77
2022-09-09T23:09:02.635Z,58.95
2022-09-09T23:11:34.639Z,58.90
2022-09-09T23:14:05.127Z,58.83
2022-09-09T23:16:38.366Z,58.70
2022-09-09T23:19:08.480Z,58.80
2022-09-09T23:21:37.385Z,58.77
2022-09-09T23:24:08.280Z,58.91
2022-09-09T23:26:38.588Z,58.94
2022-09-09T23:29:06.602Z,58.83
2022-09-09T23:31:37.935Z,58.82
2022-09-09T23:34:06.702Z,58.81
2022-09-09T23:36:34.990Z,58.82
2022-09-09T23:39:05.437Z,58.76
2022-09-09T23:41:35.681Z,58.64
2022-09-09T23:44:06.304Z,58.62
2022-09-09T23:46:35.788Z,58.58
2022-09-09T23:49:05.051Z,58.67
2022-09-09T23:51:33.982Z,58.91
2022-09-09T23:54:05.053Z,58.78
2022-09-09T23:56:35.326Z,58.72
2022-09-09T23:59:05.540Z,58.89
